createdAt,value
2016-06-17T13:14:17.906Z,78.67
2016-06-17T13:15:17.284Z,79.63
2016-06-17T13:16:17.881Z,79.25
2016-06-17T13:17:17.854Z,78.9
2016-06-17T13:18:17.232Z,77.36
2016-06-17T13:19:17.845Z,78.33
2016-06-17T13:20:17.223Z,75.76
2016-06-17T13:21:17.211Z,74.61
2016-06-17T13:22:17.262Z,78.4
2016-06-17T13:23:17.828Z,76.48
2016-06-17T13:24:17.815Z,73.62
2016-06-17T13:25:17.803Z,73.43
2016-06-17T13:26:17.181Z,74.58
2016-06-17T13:27:17.170Z,73.33
2016-06-17T13:28:17.798Z,72.89
2016-06-17T13:29:17.786Z,69.71
2016-06-17T13:30:17.788Z,70.48
2016-06-17T13:31:17.778Z,69.74
2016-06-17T13:32:17.780Z,71.48
2016-06-17T13:33:17.768Z,69.35
2016-06-17T13:34:17.147Z,71.38
2016-06-17T13:35:17.806Z,68.01
2016-06-17T13:36:17.763Z,69.84
2016-06-17T13:37:17.751Z,68.59
2016-06-17T13:38:17.130Z,71.54
2016-06-17T13:39:17.742Z,70.96
2016-06-17T13:40:17.745Z,69.84
2016-06-17T13:41:17.124Z,69.35
2016-06-17T13:42:17.128Z,66.01
2016-06-17T13:43:17.739Z,66.11
2016-06-17T13:44:17.729Z,67.27
2016-06-17T13:45:17.106Z,66.97
2016-06-17T13:46:17.111Z,66.11
2016-06-17T13:47:17.097Z,63.98
2016-06-17T13:48:17.101Z,67.27
2016-06-17T13:49:17.761Z,66.49
2016-06-17T13:50:17.093Z,65.47
2016-06-17T13:51:17.706Z,66.49
2016-06-17T13:52:17.084Z,67.85
2016-06-17T13:53:17.712Z,64.4
2016-06-17T13:54:17.700Z,67.75
2016-06-17T13:55:17.703Z,65.14
2016-06-17T13:56:17.082Z,65.63
2016-06-17T13:57:17.696Z,68.93
2016-06-17T13:58:17.077Z,68.99
2016-06-17T13:59:17.082Z,69.48
2016-06-17T14:00:17.088Z,71.5
2016-06-17T14:01:17.078Z,72.91
2016-06-17T14:02:17.818Z,70.31
2016-06-17T14:03:17.275Z,72.88
2016-06-17T14:04:17.060Z,72.88
2016-06-17T14:05:17.080Z,73.61
2016-06-17T14:06:17.678Z,74.76
2016-06-17T14:07:35.186Z,75.4
2016-06-17T14:08:17.061Z,75.75
2016-06-17T14:09:17.065Z,75.84
2016-06-17T14:10:17.038Z,77.09
2016-06-17T14:11:17.651Z,78.25
2016-06-17T14:12:17.640Z,78.15
2016-06-17T14:13:17.018Z,76.81
2016-06-17T14:14:17.631Z,76.71
2016-06-17T14:15:17.009Z,77.63
2016-06-17T14:16:16.996Z,78.83
2016-06-17T14:17:17.609Z,77.58
2016-06-17T14:18:16.988Z,78.34
2016-06-17T14:19:17.601Z,79.79
2016-06-17T14:20:17.589Z,78.83
2016-06-17T14:21:16.967Z,79.65
2016-06-17T14:22:16.972Z,79.46
2016-06-17T14:23:17.567Z,80.13
2016-06-17T14:24:17.556Z,80.8
2016-06-17T14:25:16.935Z,81.57
2016-06-17T14:26:16.938Z,81.09
2016-06-17T14:27:17.534Z,81.15
2016-06-17T14:28:16.913Z,79.61
2016-06-17T14:29:17.526Z,82.1
2016-06-17T14:30:16.904Z,83.41
2016-06-17T14:31:17.518Z,84.18
2016-06-17T14:32:16.897Z,85.91
2016-06-17T14:33:17.495Z,83.7
2016-06-17T14:34:16.874Z,86.58
2016-06-17T14:35:16.863Z,85.58
2016-06-17T14:36:16.883Z,84.14
2016-06-17T14:37:16.855Z,85.77
2016-06-17T14:38:17.468Z,86.54
2016-06-17T14:39:16.847Z,86.82
2016-06-17T14:40:16.835Z,86.05
2016-06-17T14:41:16.824Z,87.01
2016-06-17T14:42:17.437Z,84.86
2016-06-17T14:43:17.425Z,85.82
2016-06-17T14:44:16.787Z,86.88
2016-06-17T14:45:16.790Z,88.89
2016-06-17T14:46:16.778Z,86.4
2016-06-17T14:47:17.376Z,86.97
2016-06-17T14:48:17.379Z,88.46
2016-06-17T14:49:16.758Z,90.09
2016-06-17T14:50:17.355Z,88.79
2016-06-17T14:51:16.733Z,89.47
2016-06-17T14:52:16.737Z,89.85
2016-06-17T14:53:16.709Z,88.79
2016-06-17T14:54:17.322Z,89.27
2016-06-17T14:55:17.309Z,89.08
2016-06-17T14:56:17.329Z,88.89
2016-06-17T14:57:16.676Z,91
2016-06-17T14:58:17.288Z,91.86
2016-06-17T14:59:17.277Z,90.37
2016-06-17T15:00:16.655Z,89.12
2016-06-17T15:01:17.268Z,87.68
2016-06-17T15:02:16.631Z,87.3
2016-06-17T15:03:16.619Z,88.65
2016-06-17T15:04:16.607Z,88.93
2016-06-17T15:05:17.219Z,88.74
2016-06-17T15:06:17.208Z,88.93
2016-06-17T15:07:16.586Z,88.26
2016-06-17T15:08:16.574Z,88.11
2016-06-17T15:09:16.561Z,88.11
2016-06-17T15:10:16.549Z,87.15
2016-06-17T15:11:17.162Z,86
2016-06-17T15:12:16.557Z,83.98
2016-06-17T15:13:16.529Z,84.37
2016-06-17T15:14:16.533Z,85.33
2016-06-17T15:15:16.504Z,86.19
2016-06-17T15:16:16.508Z,87.29
2016-06-17T15:17:16.496Z,85.37
2016-06-17T15:18:16.484Z,83.93
2016-06-17T15:19:16.471Z,83.84
2016-06-17T15:20:16.490Z,83.87
2016-06-17T15:21:17.275Z,83.4
2016-06-17T15:22:17.091Z,82.4
2016-06-17T15:23:17.064Z,83.01
2016-06-17T15:24:16.443Z,82.4
2016-06-17T15:25:16.430Z,81.72
2016-06-17T15:26:17.042Z,83.26
2016-06-17T15:27:16.420Z,83.36
2016-06-17T15:28:17.034Z,82.1
2016-06-17T15:29:17.021Z,84.8
2016-06-17T15:30:17.025Z,82.2
2016-06-17T15:31:16.998Z,84.12
2016-06-17T15:32:16.986Z,82.87
2016-06-17T15:33:16.989Z,85.04
2016-06-17T15:34:16.978Z,86.91
2016-06-17T15:35:16.965Z,85.37
2016-06-17T15:36:16.985Z,83.36
2016-06-17T15:37:16.972Z,82.34
2016-06-17T15:38:16.320Z,80.61
2016-06-17T15:39:16.933Z,80.8
2016-06-17T15:40:16.933Z,82.24
2016-06-17T15:41:16.297Z,79.98
2016-06-17T15:42:16.911Z,79.98
2016-06-17T15:43:16.276Z,80.94
2016-06-17T15:44:16.280Z,76.69
2016-06-17T15:45:16.878Z,78.33
2016-06-17T15:46:16.881Z,78.27
2016-06-17T15:47:16.260Z,72.88
2016-06-17T15:48:16.249Z,73.71
2016-06-17T15:49:16.237Z,75.24
2016-06-17T15:50:16.241Z,74.86
2016-06-17T15:51:16.229Z,76.84
2016-06-17T15:52:16.217Z,78.96
2016-06-17T15:53:16.220Z,74.73
2016-06-17T15:54:16.210Z,73.96
2016-06-17T15:55:16.197Z,74.54
2016-06-17T15:56:16.201Z,75.37
2016-06-17T15:57:16.173Z,76.52
2016-06-17T15:58:16.176Z,75.75
2016-06-17T15:59:16.789Z,76.04
2016-06-17T16:00:16.167Z,75.56
2016-06-17T16:01:16.156Z,75.56
2016-06-17T16:02:16.143Z,75.65
2016-06-17T16:03:16.335Z,77.61
2016-06-17T16:04:16.759Z,77.61
2016-06-17T16:05:16.123Z,75.31
2016-06-17T16:06:16.111Z,73.96
2016-06-17T16:07:16.098Z,73.96
2016-06-17T16:08:16.711Z,75.44
2016-06-17T16:09:16.090Z,74.38
2016-06-17T16:10:16.094Z,72.45
2016-06-17T16:11:16.690Z,72.74
2016-06-17T16:12:16.116Z,73.55
2016-06-17T16:13:16.056Z,72.11
2016-06-17T16:14:16.060Z,72.59
2016-06-17T16:15:16.048Z,71.28
2016-06-17T16:16:16.645Z,70.5
2016-06-17T16:17:16.024Z,70.41
2016-06-17T16:18:16.637Z,68
2016-06-17T16:19:16.016Z,68.58
2016-06-17T16:20:16.628Z,68.38
2016-06-17T16:21:16.616Z,67.81
2016-06-17T16:22:15.994Z,68.48
2016-06-17T16:23:16.592Z,68.68
2016-06-17T16:24:15.986Z,68.68
2016-06-17T16:25:16.582Z,69.73
2016-06-17T16:26:15.961Z,71.18
2016-06-17T16:27:16.574Z,70.12
2016-06-17T16:28:16.562Z,66.94
2016-06-17T16:29:15.940Z,68.48
2016-06-17T16:30:16.569Z,69.25
2016-06-17T16:31:15.916Z,69.64
2016-06-17T16:32:15.920Z,67.13
2016-06-17T16:33:16.532Z,67.19
2016-06-17T16:34:15.895Z,67
2016-06-17T16:35:16.508Z,67.77
2016-06-17T16:36:15.902Z,67.97
2016-06-17T16:37:15.874Z,69.7
2016-06-17T16:38:15.877Z,70.18
2016-06-17T16:39:16.538Z,68.58
2016-06-17T16:40:16.478Z,67.97
2016-06-17T16:41:15.842Z,69.54
2016-06-17T16:42:16.470Z,69.41
2016-06-17T16:43:15.832Z,67
2016-06-17T16:44:15.820Z,68.58
2016-06-17T16:45:16.448Z,70.18
2016-06-17T16:46:16.421Z,68.48
2016-06-17T16:47:16.424Z,69.06
2016-06-17T16:48:16.413Z,68.38
2016-06-17T16:49:15.794Z,68.29
2016-06-17T16:50:15.786Z,69.64
2016-06-17T16:51:16.402Z,69.35
2016-06-17T16:52:16.408Z,70.41
2016-06-17T16:53:15.774Z,68.38
2016-06-17T16:54:15.763Z,68.58
2016-06-17T16:55:16.376Z,68.38
2016-06-17T16:56:16.381Z,68.38
2016-06-17T16:57:16.370Z,69.06
2016-06-17T16:58:15.734Z,68.54
2016-06-17T16:59:16.347Z,69.12
2016-06-17T17:00:15.725Z,69.79
2016-06-17T17:01:15.730Z,68.74
2016-06-17T17:02:16.343Z,67.58
2016-06-17T17:03:15.706Z,69.31
2016-06-17T17:04:15.710Z,67.39
2016-06-17T17:05:15.697Z,69.51
2016-06-17T17:06:16.310Z,69.99
2016-06-17T17:07:16.313Z,70.66
2016-06-17T17:08:15.676Z,69.7
2016-06-17T17:09:16.290Z,71.3
2016-06-17T17:10:15.668Z,70.53
2016-06-17T17:11:16.281Z,71.11
2016-06-17T17:12:15.658Z,71.4
2016-06-17T17:13:15.646Z,71.11
2016-06-17T17:14:15.635Z,71.78
2016-06-17T17:15:16.247Z,71.62
2016-06-17T17:16:15.626Z,72.3
2016-06-17T17:17:15.614Z,71.91
2016-06-17T17:18:16.243Z,71.04
2016-06-17T17:19:15.605Z,71.91
2016-06-17T17:20:16.218Z,71.4
2016-06-17T17:21:15.581Z,72.36
2016-06-17T17:22:16.193Z,71.59
2016-06-17T17:23:15.572Z,71.88
2016-06-17T17:24:15.560Z,72.55
2016-06-17T17:25:15.563Z,71.4
2016-06-17T17:26:16.161Z,72.65
2016-06-17T17:27:15.539Z,71.78
2016-06-17T17:28:15.527Z,72.07
2016-06-17T17:29:16.140Z,72.84
2016-06-17T17:30:16.127Z,72.84
2016-06-17T17:31:16.131Z,72.36
2016-06-17T17:32:16.119Z,74.48
2016-06-17T17:33:15.498Z,71.69
2016-06-17T17:34:16.094Z,69.09
2016-06-17T17:35:15.488Z,68.35
2016-06-17T17:36:15.476Z,69.38
2016-06-17T17:37:16.073Z,68.99
2016-06-17T17:38:15.468Z,69.67
2016-06-17T17:39:16.080Z,70.24
2016-06-17T17:40:16.053Z,70.15
2016-06-17T17:41:16.056Z,70.92
2016-06-17T17:42:16.043Z,70.53
2016-06-17T17:43:16.032Z,70.98
2016-06-17T17:44:15.395Z,70.21
2016-06-17T17:45:16.023Z,73
2016-06-17T17:46:15.385Z,72.61
2016-06-17T17:47:15.389Z,70.4
2016-06-17T17:48:15.361Z,70.59
2016-06-17T17:49:15.381Z,70.4
2016-06-17T17:50:15.354Z,71.23
2016-06-17T17:51:16.012Z,71.23
2016-06-17T17:52:15.953Z,71.91
2016-06-17T17:53:15.316Z,71.61
2016-06-17T17:54:15.320Z,71.91
2016-06-17T17:55:15.308Z,72
2016-06-17T17:56:15.328Z,71.04
2016-06-17T17:57:15.926Z,70.37
2016-06-17T17:58:15.916Z,70.27
2016-06-17T17:59:15.906Z,71.42
2016-06-17T18:00:15.896Z,72
2016-06-17T18:01:15.260Z,72.86
2016-06-17T18:02:15.890Z,74.21
2016-06-17T18:03:15.268Z,74.75
2016-06-17T18:04:15.242Z,75.04
2016-06-17T18:05:15.855Z,75.42
2016-06-17T18:06:15.234Z,76.39
2016-06-17T18:07:15.832Z,77.06
2016-06-17T18:08:15.211Z,77.92
2016-06-17T18:09:15.808Z,78.4
2016-06-17T18:10:15.187Z,78.17
2016-06-17T18:11:15.176Z,78.75
2016-06-17T18:12:15.162Z,78.94
2016-06-17T18:13:15.213Z,78.94
2016-06-17T18:14:15.763Z,79.03
2016-06-17T18:15:15.142Z,79.61
2016-06-17T18:16:15.130Z,80.05
2016-06-17T18:17:15.133Z,81.4
2016-06-17T18:18:15.200Z,81.78
2016-06-17T18:19:15.108Z,82.16
2016-06-17T18:20:15.097Z,82.45
2016-06-17T18:21:15.085Z,82.93
2016-06-17T18:22:15.697Z,83.8
2016-06-17T18:23:15.686Z,84.14
2016-06-17T18:24:15.673Z,84.61
2016-06-17T18:25:15.661Z,84.91
2016-06-17T18:26:15.649Z,85.67
2016-06-17T18:27:15.012Z,86.34
2016-06-17T18:28:15.671Z,86.25
2016-06-17T18:29:15.004Z,87.01
2016-06-17T18:30:14.991Z,87.3
2016-06-17T18:31:14.978Z,87.88
2016-06-17T18:32:14.967Z,88.45
2016-06-17T18:33:14.954Z,89.12
2016-06-17T18:34:15.567Z,89.65
2016-06-17T18:35:15.555Z,90.14
2016-06-17T18:36:14.918Z,90.52
2016-06-17T18:37:15.531Z,90.71
2016-06-17T18:38:15.518Z,91.48
2016-06-17T18:39:14.897Z,91.86
2016-06-17T18:40:15.494Z,92.05
2016-06-17T18:41:14.888Z,92.63
2016-06-17T18:42:15.486Z,93.21
2016-06-17T18:43:15.473Z,94.17
2016-06-17T18:44:15.476Z,94.26
2016-06-17T18:45:15.449Z,93.97
2016-06-17T18:46:15.453Z,94.17
2016-06-17T18:47:15.424Z,94.26
2016-06-17T18:48:15.413Z,93.88
2016-06-17T18:49:15.401Z,94.07
2016-06-17T18:50:14.779Z,94.21
2016-06-17T18:51:15.376Z,94.02
2016-06-17T18:52:14.754Z,94.02
2016-06-17T18:53:14.742Z,93.93
2016-06-17T18:54:14.730Z,94.59
2016-06-17T18:55:14.719Z,94.79
2016-06-17T18:56:15.315Z,95.65
2016-06-17T18:57:14.709Z,95.56
2016-06-17T18:58:14.682Z,95.56
2016-06-17T18:59:14.669Z,96.13
2016-06-17T19:00:14.656Z,95.17
2016-06-17T19:01:14.645Z,95.17
2016-06-17T19:02:14.633Z,94.98
2016-06-17T19:03:14.621Z,95.94
2016-06-17T19:04:14.609Z,95.84
2016-06-17T19:05:15.220Z,96.13
2016-06-17T19:06:15.224Z,96.03
2016-06-17T19:07:15.196Z,95.84
2016-06-17T19:08:14.558Z,96.51
2016-06-17T19:09:15.171Z,96.61
2016-06-17T19:10:15.158Z,96.32
2016-06-17T19:11:15.147Z,96.89
2016-06-17T19:12:14.525Z,98.05
2016-06-17T19:13:14.513Z,97.56
2016-06-17T19:14:15.125Z,97.38
2016-06-17T19:15:14.504Z,97.76
2016-06-17T19:16:14.476Z,97.56
2016-06-17T19:19:15.064Z,98.14
2016-06-17T19:20:15.053Z,98.52
2016-06-17T19:21:14.431Z,99.01
2016-06-17T19:22:15.028Z,98.91
2016-06-17T19:23:15.017Z,98.52
2016-06-17T19:24:14.379Z,98.52
2016-06-17T19:25:14.992Z,98.33
2016-06-17T19:26:14.370Z,98.81
2016-06-17T19:43:14.790Z,98.43
2016-06-17T19:44:14.153Z,98.52
2016-06-17T19:45:14.765Z,98.57
2016-06-17T19:46:14.753Z,98.76
2016-06-17T19:47:14.132Z,98.47
2016-06-17T19:48:14.729Z,98.28
2016-06-17T19:49:14.108Z,98.28
2016-06-17T19:50:14.140Z,98.38
2016-06-17T19:51:14.737Z,98.38
2016-06-17T19:52:14.100Z,98
2016-06-17T19:53:14.104Z,98
2016-06-17T19:54:14.122Z,98.28
2016-06-17T19:55:14.064Z,98.28
2016-06-17T19:56:14.676Z,98.28
2016-06-17T19:57:14.665Z,98.28
2016-06-17T19:58:14.652Z,98.67
2016-06-17T19:59:14.015Z,98.96
2016-06-17T20:00:14.628Z,99.05
2016-06-17T20:01:14.616Z,99.05
2016-06-17T20:02:14.604Z,99.05
2016-06-17T20:03:13.966Z,98.86
2016-06-17T20:04:14.579Z,99.05
2016-06-17T20:05:14.567Z,98.86
2016-06-17T20:06:13.961Z,98.76
2016-06-17T20:07:13.933Z,98.76
2016-06-17T20:08:14.531Z,98.86
2016-06-17T20:09:14.518Z,98.76
2016-06-17T20:10:13.896Z,99.15
2016-06-17T20:11:13.886Z,98.76
2016-06-17T20:12:13.920Z,99.24
2016-06-17T20:13:14.472Z,99.24
2016-06-17T20:14:14.495Z,99.34
2016-06-17T20:15:13.892Z,99.24
2016-06-17T20:16:14.445Z,99.91
2016-06-17T20:17:13.827Z,99.63
2016-06-17T20:18:13.816Z,99.63
2016-06-17T20:19:14.414Z,99.99
2016-06-17T20:20:14.419Z,99.99
2016-06-17T20:21:13.783Z,99.82
2016-06-17T20:22:13.772Z,99.91
2016-06-17T20:23:13.761Z,99.99
2016-06-17T20:24:13.764Z,99.63
2016-06-17T20:25:13.737Z,99.99
2016-06-17T20:26:13.725Z,99.63
2016-06-17T20:27:14.339Z,99.67
2016-06-17T20:28:14.343Z,99.77
2016-06-17T20:29:14.300Z,99.99
2016-06-17T20:30:13.679Z,99.99
2016-06-17T20:31:14.291Z,99.77
2016-06-17T20:32:13.670Z,99.99
2016-06-17T20:33:13.642Z,99.99
2016-06-17T20:34:13.646Z,99.99
2016-06-17T20:35:14.275Z,99.99
2016-06-17T20:36:13.622Z,99.99
2016-06-17T20:37:14.235Z,99.99
2016-06-17T20:38:13.597Z,99.99
2016-06-17T20:39:14.194Z,99.99
2016-06-17T20:40:13.573Z,99.99
2016-06-17T20:41:13.560Z,99.99
2016-06-17T20:42:13.548Z,99.96
2016-06-17T20:43:14.146Z,99.96
2016-06-17T20:44:14.149Z,99.99
2016-06-17T20:45:13.512Z,99.99
2016-06-17T20:46:14.110Z,99.96
2016-06-17T20:47:14.113Z,99.99
2016-06-17T20:48:13.476Z,99.99
2016-06-17T20:49:13.463Z,99.99
2016-06-17T20:50:14.077Z,99.99
2016-06-17T20:51:14.064Z,99.99
2016-06-17T20:52:14.036Z,99.99
2016-06-17T20:53:14.039Z,99.99
2016-06-17T20:54:14.074Z,99.99
2016-06-17T20:55:13.390Z,99.99
2016-06-17T20:56:13.987Z,99.99
2016-06-17T20:57:13.991Z,99.99
2016-06-17T20:58:13.354Z,99.99
2016-06-17T20:59:13.342Z,99.99
2016-06-17T21:00:13.329Z,99.99
2016-06-17T21:01:13.318Z,99.99
2016-06-17T21:02:13.930Z,99.99
2016-06-17T21:03:13.918Z,99.99
2016-06-17T21:04:13.280Z,99.99
2016-06-17T21:05:13.284Z,99.99
2016-06-17T21:06:13.272Z,99.99
2016-06-17T21:07:13.900Z,99.99
2016-06-17T21:08:13.248Z,99.99
2016-06-17T21:09:13.220Z,99.99
2016-06-17T21:10:13.224Z,99.99
2016-06-17T21:11:13.820Z,99.99
2016-06-17T21:12:13.200Z,99.99
2016-06-17T21:13:13.171Z,99.99
2016-06-17T21:14:13.174Z,99.99
2016-06-17T21:15:13.771Z,99.99
2016-06-17T21:16:13.150Z,99.99
2016-06-17T21:17:13.748Z,99.99
2016-06-17T21:18:13.126Z,99.99
2016-06-17T21:19:13.739Z,99.99
2016-06-17T21:20:13.086Z,99.99
2016-06-17T21:21:13.732Z,99.99
2016-06-17T21:22:13.704Z,99.99
2016-06-17T21:23:13.678Z,99.99
2016-06-17T21:24:13.057Z,99.99
2016-06-17T21:25:13.047Z,99.99
2016-06-17T21:26:13.659Z,99.99
2016-06-17T21:27:13.633Z,99.99
2016-06-17T21:28:13.011Z,99.99
2016-06-17T21:29:13.000Z,99.99
2016-06-17T21:30:12.987Z,99.99
2016-06-17T21:31:12.975Z,99.99
2016-06-17T21:32:12.963Z,99.99
2016-06-17T21:33:12.982Z,99.99
2016-06-17T21:34:12.939Z,99.99
2016-06-17T21:35:12.926Z,99.99
2016-06-17T21:36:12.946Z,99.99
2016-06-17T21:37:12.902Z,99.99
2016-06-17T21:38:12.906Z,99.99
2016-06-17T21:39:13.643Z,99.99
2016-06-17T21:40:12.866Z,99.99
2016-06-17T21:41:27.698Z,99.99
2016-06-17T21:42:13.466Z,99.99
2016-06-17T21:43:12.830Z,99.99
2016-06-17T21:44:12.833Z,99.99
2016-06-17T21:45:13.414Z,99.99
2016-06-17T21:46:12.808Z,99.62
2016-06-17T21:47:13.406Z,99.33
2016-06-17T21:48:12.784Z,98.86
2016-06-17T21:49:13.382Z,99.52
2016-06-17T21:50:12.744Z,99.33
2016-06-17T21:51:12.748Z,99.15
2016-06-17T21:52:12.736Z,99.24
2016-06-17T21:53:13.333Z,98.95
2016-06-17T21:54:13.321Z,98.95
2016-06-17T21:55:13.309Z,99.43
2016-06-17T21:56:12.687Z,98.66
2016-06-17T21:57:12.659Z,98.86
2016-06-17T21:58:13.272Z,99.33
2016-06-17T21:59:13.259Z,99.43
2016-06-17T22:00:13.248Z,98.66
2016-06-17T22:01:13.235Z,99.33
2016-06-17T22:02:12.614Z,98.95
2016-06-17T22:03:12.587Z,98.95
2016-06-17T22:04:12.574Z,98.66
2016-06-17T22:05:12.563Z,98.95
2016-06-17T22:06:13.175Z,98.76
2016-06-17T22:07:13.147Z,99.05
2016-06-17T22:08:12.525Z,98.95
2016-06-17T22:09:12.513Z,99.05
2016-06-17T22:10:13.125Z,99.33
2016-06-17T22:11:12.489Z,99.81
2016-06-17T22:12:12.476Z,99.81
2016-06-17T22:13:12.465Z,99.52
2016-06-17T22:14:13.078Z,99.43
2016-06-17T22:15:12.440Z,99.91
2016-06-17T22:16:13.054Z,99.81
2016-06-17T22:17:13.025Z,99.99
2016-06-17T22:18:13.028Z,99.72
2016-06-17T22:19:12.407Z,99.91
2016-06-17T22:20:13.004Z,99.81
2016-06-17T22:21:12.367Z,99.91
2016-06-17T22:22:12.980Z,99.91
2016-06-17T22:23:12.342Z,99.72
2016-06-17T22:24:12.378Z,99.91
2016-06-17T22:25:12.335Z,99.99
2016-06-17T22:26:12.931Z,99.99
2016-06-17T22:27:12.295Z,99.91
2016-06-17T22:28:12.892Z,99.52
2016-06-17T22:29:12.316Z,99.99
2016-06-17T22:30:12.883Z,99.99
2016-06-17T22:31:12.246Z,99.91
2016-06-17T22:32:12.233Z,99.99
2016-06-17T22:33:12.830Z,99.99
2016-06-17T22:34:12.818Z,99.86
2016-06-17T22:35:12.197Z,99.99
2016-06-17T22:36:12.184Z,99.99
2016-06-17T22:37:12.798Z,99.99
2016-06-17T22:38:12.160Z,99.99
2016-06-17T22:39:12.758Z,99.91
2016-06-17T22:40:12.136Z,99.72
2016-06-17T22:41:12.108Z,99.99
2016-06-17T22:42:12.722Z,99.99
2016-06-17T22:43:12.099Z,99.99
2016-06-17T22:44:12.087Z,99.99
2016-06-17T22:45:12.701Z,99.99
2016-06-17T22:46:12.672Z,99.99
2016-06-17T22:47:12.661Z,99.99
2016-06-17T22:48:12.664Z,99.99
2016-06-17T22:49:12.026Z,99.99
2016-06-17T22:50:12.014Z,99.99
2016-06-17T22:51:12.627Z,99.99
2016-06-17T22:52:11.990Z,99.99
2016-06-17T22:53:12.588Z,99.99
2016-06-17T22:54:12.575Z,99.99
2016-06-17T22:55:12.563Z,99.99
2016-06-17T22:56:12.550Z,99.99
2016-06-17T22:57:11.929Z,99.99
2016-06-17T22:58:11.916Z,99.99
2016-06-17T22:59:12.514Z,99.99
2016-06-17T23:00:12.502Z,99.99
2016-06-17T23:01:11.865Z,99.99
2016-06-17T23:02:11.884Z,99.99
2016-06-17T23:03:11.841Z,99.99
2016-06-17T23:04:11.829Z,99.99
2016-06-17T23:05:11.832Z,99.99
2016-06-17T23:06:11.805Z,99.99
2016-06-17T23:07:11.792Z,99.99
2016-06-17T23:08:12.405Z,99.99
2016-06-17T23:09:11.767Z,99.99
2016-06-17T23:10:12.380Z,99.99
2016-06-17T23:11:11.743Z,99.99
2016-06-17T23:12:11.747Z,99.99
2016-06-17T23:13:11.718Z,99.99
2016-06-17T23:14:12.332Z,99.99
2016-06-17T23:15:12.320Z,99.99
2016-06-17T23:16:11.683Z,99.99
2016-06-17T23:17:11.670Z,99.99
2016-06-17T23:18:12.283Z,99.99
2016-06-17T23:19:11.646Z,99.99
2016-06-17T23:20:12.259Z,99.99
2016-06-17T23:21:12.246Z,99.99
2016-06-17T23:22:11.610Z,99.99
2016-06-17T23:23:11.597Z,99.99
2016-06-17T23:24:11.585Z,99.99
2016-06-17T23:25:12.198Z,99.99
2016-06-17T23:26:12.201Z,99.99
2016-06-17T23:27:12.174Z,99.99
2016-06-17T23:28:11.536Z,99.99
2016-06-17T23:29:11.524Z,99.99
2016-06-17T23:30:12.137Z,99.99
2016-06-17T23:31:12.110Z,99.99
2016-06-17T23:32:11.504Z,99.99
2016-06-17T23:33:12.101Z,99.99
2016-06-17T23:34:12.088Z,99.99
2016-06-17T23:35:11.451Z,99.99
2016-06-17T23:36:12.080Z,99.99
2016-06-17T23:37:12.052Z,99.99
2016-06-17T23:38:12.027Z,99.99
2016-06-17T23:39:11.407Z,99.99
2016-06-17T23:40:11.398Z,99.99
2016-06-17T23:41:11.386Z,99.99
2016-06-17T23:42:11.376Z,99.99
2016-06-17T23:43:11.974Z,99.99
2016-06-17T23:44:11.337Z,99.99
2016-06-17T23:45:11.342Z,99.99
2016-06-17T23:46:11.939Z,99.99
2016-06-17T23:47:11.304Z,99.99
2016-06-17T23:48:11.916Z,99.99
2016-06-17T23:49:11.904Z,99.99
2016-06-17T23:50:11.266Z,99.99
2016-06-17T23:51:11.880Z,99.99
2016-06-17T23:52:11.866Z,99.99
2016-06-17T23:53:11.230Z,99.99
2016-06-17T23:54:11.234Z,99.99
2016-06-17T23:55:11.831Z,99.99
2016-06-17T23:56:11.818Z,99.99
2016-06-17T23:57:11.181Z,99.99
2016-06-17T23:58:11.184Z,99.99
2016-06-17T23:59:11.173Z,99.99
